Main page
METAR-TAF:

METAR-TAF

Airports :

Sheldon Municipal Airport

Sheldon, Iowa, United States

latitude: 43-13N, longitude: 095-50W, elevation: 1417 ft

Current weather observation

The report was made 24 minutes ago, at 21:55 UTC
Wind 17 mph from the South with gusts up to 25 mph
Temperature 72°F
Humidity 33%
Pressure 29.73 in. Hg
Visibility: 10 miles
Clear sky

METAR: KSHL 012155Z AUTO 18015G22KT 10SM CLR 22/05 A2973 RMK AO2

Time: 17:19 (22:19 UTC)


TAF: missing

Weather observations and forecasts of more than 4000 airports (METAR and TAF reports).

The available stations are represented by yellow and red dots on the map.

Hover mouse over dot to see the name of the station.

Then click to see weather observations and forecasts.

To change the map : click on the green buttons with a black cross to zoom in, on the green button with a dash to zoom out, or on the green arrows for adjacent maps.


METAR-TAF: